Picos, Brazil
Current Conditions -  °F | °C
As of 12:00 AM on Saturday 22 Nov 2014 (Local Time) from SBJU Reporting Station
Scattered Clouds Scattered Clouds  
Wind Chill: 82°   Ceiling: Unl
Heat Index: 89°   Visibility: 6mi
Dew Point: 75°   Wind: 0mph
Humidity: 79%   Direction: NA
Pressure: 29.97"   Gusts: NA
Location:  7.57°S, 38.28°W
Report Text: SBJU 220300Z 00000KT 9999 SCT018 28/24 Q1015
Loading
Personal Weather Stations






























Interactive Weather Map New forecast layout! Learn more

10-Day Weather Forecast

Advertisements
Track Severe Weather on mobile